Time;durP1;ratioP1;P1;durP2;ratioP2;P2;SDS_P1;SDS_P2;PMS_P1;PMS_P2;Temp;Humidity;BMP_temperature;BMP_pressure;BME280_temperature;BME280_humidity;BME280_pressure;Samples;Min_cycle;Max_cycle;Signal;HPM_P1;HPM_P2
2022/02/20 00:01:19;;;;;;;6.33;3.60;;;8.70;99.90;;;;;;5086509;28;20194;-67
2022/02/20 00:03:45;;;;;;;5.57;3.60;;;8.70;99.90;;;;;;5086134;28;20186;-68
2022/02/20 00:06:12;;;;;;;6.67;3.73;;;8.70;99.90;;;;;;5084637;28;20195;-68
2022/02/20 00:08:38;;;;;;;8.47;3.47;;;8.70;99.90;;;;;;5058589;28;20289;-67
2022/02/20 00:11:04;;;;;;;7.83;3.67;;;8.70;99.90;;;;;;5082371;28;20502;-67
2022/02/20 00:13:31;;;;;;;6.27;3.70;;;8.70;99.90;;;;;;5067167;28;20194;-67
2022/02/20 00:15:57;;;;;;;6.23;3.57;;;8.60;99.90;;;;;;5066160;28;20242;-68
2022/02/20 00:18:23;;;;;;;5.70;3.17;;;8.60;99.90;;;;;;5071479;28;20209;-68
2022/02/20 00:20:50;;;;;;;5.37;3.43;;;8.60;99.90;;;;;;5074940;28;20198;-67
2022/02/20 00:23:16;;;;;;;4.57;3.13;;;8.50;99.90;;;;;;5057044;28;20217;-68
2022/02/20 00:25:44;;;;;;;7.00;3.10;;;8.50;99.90;;;;;;5078740;28;20293;-67
2022/02/20 00:28:12;;;;;;;6.13;3.07;;;8.50;99.90;;;;;;5090845;28;20636;-68
2022/02/20 00:30:39;;;;;;;7.93;3.37;;;8.60;99.90;;;;;;5060777;28;20582;-68
2022/02/20 00:33:05;;;;;;;7.37;3.27;;;8.60;99.90;;;;;;5066513;28;20555;-67
2022/02/20 00:35:33;;;;;;;7.83;3.60;;;8.70;99.90;;;;;;5067792;28;20194;-69
2022/02/20 00:38:01;;;;;;;6.50;3.80;;;8.60;99.90;;;;;;5082961;28;20214;-67
2022/02/20 00:40:28;;;;;;;5.40;3.63;;;8.60;99.90;;;;;;5054900;28;20622;-68
2022/02/20 00:42:54;;;;;;;9.63;3.80;;;8.60;99.90;;;;;;5065852;28;20198;-68
2022/02/20 00:45:21;;;;;;;7.40;3.57;;;8.60;99.90;;;;;;5066615;28;20619;-67
2022/02/20 00:47:47;;;;;;;7.30;3.40;;;8.60;99.90;;;;;;5077850;28;20229;-67
2022/02/20 00:50:14;;;;;;;4.80;3.63;;;8.50;99.90;;;;;;5065510;28;20295;-68
2022/02/20 00:52:40;;;;;;;8.10;3.63;;;8.50;99.90;;;;;;5069265;28;20197;-69
2022/02/20 00:55:08;;;;;;;7.73;3.53;;;8.50;99.90;;;;;;5066319;28;20199;-68
2022/02/20 00:57:35;;;;;;;10.97;4.43;;;8.50;99.90;;;;;;5098055;28;20190;-67
2022/02/20 01:00:05;;;;;;;5.80;3.83;;;8.40;99.90;;;;;;5095929;28;20193;-68
2022/02/20 01:02:31;;;;;;;6.73;3.53;;;8.40;99.90;;;;;;5066453;28;20289;-67
2022/02/20 01:04:57;;;;;;;11.23;3.93;;;8.40;99.90;;;;;;5066643;28;20230;-67
2022/02/20 01:07:24;;;;;;;7.93;4.13;;;8.40;99.90;;;;;;5078302;28;20281;-67
2022/02/20 01:09:51;;;;;;;5.83;3.93;;;8.40;99.90;;;;;;5076716;28;20724;-68
2022/02/20 01:12:18;;;;;;;7.80;3.57;;;8.40;99.90;;;;;;5067847;28;20663;-69
2022/02/20 01:14:46;;;;;;;5.87;3.60;;;8.40;99.90;;;;;;5079920;28;20190;-68
2022/02/20 01:17:14;;;;;;;11.10;4.20;;;8.40;99.90;;;;;;5069438;28;20198;-67
2022/02/20 01:19:41;;;;;;;6.77;3.57;;;8.50;99.90;;;;;;5066041;28;20259;-67
2022/02/20 01:22:08;;;;;;;8.03;4.37;;;8.50;99.90;;;;;;5066447;28;20553;-69
2022/02/20 01:24:34;;;;;;;6.07;4.03;;;8.60;99.90;;;;;;5069548;28;20191;-68
2022/02/20 01:27:01;;;;;;;6.50;3.90;;;8.60;99.90;;;;;;5075966;28;20194;-68
2022/02/20 01:29:28;;;;;;;9.43;4.10;;;8.60;99.90;;;;;;5071142;28;20388;-68
2022/02/20 01:31:54;;;;;;;11.53;4.50;;;8.60;99.90;;;;;;5067529;28;20194;-69
2022/02/20 01:34:21;;;;;;;7.70;4.20;;;8.60;99.90;;;;;;5068199;28;20197;-68
2022/02/20 01:36:48;;;;;;;8.67;4.37;;;8.60;99.90;;;;;;5084473;28;20189;-68
2022/02/20 01:39:15;;;;;;;5.83;4.07;;;8.60;99.90;;;;;;5094893;28;20198;-68
2022/02/20 01:41:41;;;;;;;8.00;4.30;;;8.60;99.90;;;;;;5067099;28;20248;-68
2022/02/20 01:44:08;;;;;;;5.93;3.87;;;8.60;99.90;;;;;;5079938;28;20197;-68
2022/02/20 01:46:35;;;;;;;6.67;4.33;;;8.70;99.90;;;;;;5090607;28;20950;-68
2022/02/20 01:49:01;;;;;;;10.37;4.10;;;8.70;99.90;;;;;;5077373;28;20246;-68
2022/02/20 01:51:27;;;;;;;10.63;4.60;;;8.70;99.90;;;;;;5073605;28;20286;-68
2022/02/20 01:53:54;;;;;;;11.10;4.60;;;8.70;99.90;;;;;;5077498;28;20285;-70
2022/02/20 01:56:20;;;;;;;6.50;3.63;;;8.70;99.90;;;;;;5079262;28;20193;-69
2022/02/20 01:58:46;;;;;;;14.73;4.20;;;8.70;99.90;;;;;;5072524;28;20197;-69
2022/02/20 02:01:13;;;;;;;6.80;4.50;;;8.60;99.90;;;;;;5060133;28;20191;-68
2022/02/20 02:03:39;;;;;;;8.87;4.40;;;8.60;99.90;;;;;;5071379;28;20195;-68
2022/02/20 02:06:05;;;;;;;7.83;4.50;;;8.60;99.90;;;;;;5071267;28;20198;-69
2022/02/20 02:08:32;;;;;;;8.40;3.90;;;8.60;99.90;;;;;;5067778;28;20335;-68
2022/02/20 02:10:58;;;;;;;7.23;4.23;;;8.60;99.90;;;;;;5075245;28;20701;-68
2022/02/20 02:13:24;;;;;;;11.83;4.07;;;8.50;99.90;;;;;;5073817;28;20191;-68
2022/02/20 02:15:55;;;;;;;6.13;4.17;;;8.50;99.90;;;;;;5086173;28;20254;-68
2022/02/20 02:18:21;;;;;;;6.13;4.00;;;8.50;99.90;;;;;;5067839;28;20187;-68
2022/02/20 02:20:49;;;;;;;8.43;3.87;;;8.40;99.90;;;;;;5073950;28;20551;-68
2022/02/20 02:23:19;;;;;;;5.63;4.20;;;8.40;99.90;;;;;;5064580;28;20199;-69
2022/02/20 02:25:50;;;;;;;6.27;4.17;;;8.30;99.90;;;;;;5064961;28;20240;-69
2022/02/20 02:28:17;;;;;;;13.00;4.00;;;8.30;99.90;;;;;;5086847;28;20806;-68
2022/02/20 02:30:45;;;;;;;7.10;4.50;;;8.30;99.90;;;;;;5089560;28;20201;-68
2022/02/20 02:33:11;;;;;;;6.73;4.30;;;8.30;99.90;;;;;;5072415;28;20256;-68
2022/02/20 02:35:37;;;;;;;8.13;4.10;;;8.30;99.90;;;;;;5063104;28;20306;-69
2022/02/20 02:38:07;;;;;;;10.27;5.00;;;8.30;99.90;;;;;;5078682;28;20194;-68
2022/02/20 02:40:34;;;;;;;10.23;4.47;;;8.30;99.90;;;;;;5069726;28;20277;-68
2022/02/20 02:43:01;;;;;;;7.60;4.50;;;8.30;99.90;;;;;;5068474;28;20202;-67
2022/02/20 02:45:28;;;;;;;6.53;4.10;;;8.30;99.90;;;;;;5074979;28;20684;-68
2022/02/20 02:47:54;;;;;;;8.37;4.30;;;8.30;99.90;;;;;;5074346;28;20182;-67
2022/02/20 02:50:21;;;;;;;8.30;4.60;;;8.30;99.90;;;;;;5097297;28;20183;-68
2022/02/20 02:52:47;;;;;;;7.43;3.97;;;8.30;99.90;;;;;;5067851;28;20250;-69
2022/02/20 02:55:13;;;;;;;5.00;3.93;;;8.30;99.90;;;;;;5078071;28;20191;-68
2022/02/20 02:57:41;;;;;;;6.67;3.90;;;8.30;99.90;;;;;;5066386;28;20187;-69
2022/02/20 03:00:08;;;;;;;5.37;3.50;;;8.40;99.90;;;;;;5066969;28;20275;-68
2022/02/20 03:02:34;;;;;;;7.47;3.60;;;8.40;99.90;;;;;;5070542;28;20256;-68
2022/02/20 03:05:03;;;;;;;5.20;3.53;;;8.30;99.90;;;;;;5065686;28;20220;-68
2022/02/20 03:07:30;;;;;;;7.20;3.37;;;8.30;99.90;;;;;;5066083;28;20623;-68
2022/02/20 03:09:56;;;;;;;7.93;3.73;;;8.30;99.90;;;;;;5083005;28;20689;-68
2022/02/20 03:12:23;;;;;;;7.23;4.00;;;8.30;99.90;;;;;;5084362;28;20178;-68
2022/02/20 03:14:49;;;;;;;5.43;3.03;;;8.20;99.90;;;;;;5073306;28;20948;-69
2022/02/20 03:17:15;;;;;;;4.17;3.00;;;8.20;99.90;;;;;;5069084;28;20191;-69
2022/02/20 03:19:41;;;;;;;8.13;3.23;;;8.20;99.90;;;;;;5072180;28;20209;-68
2022/02/20 03:22:08;;;;;;;3.97;2.80;;;8.20;99.90;;;;;;5084491;28;20686;-68
2022/02/20 03:24:34;;;;;;;7.07;3.70;;;8.20;99.90;;;;;;5070826;28;20190;-68
2022/02/20 03:27:00;;;;;;;5.87;3.43;;;8.30;99.90;;;;;;5070072;28;20194;-68
2022/02/20 03:29:27;;;;;;;4.80;2.90;;;8.30;99.90;;;;;;5087100;28;20497;-68
2022/02/20 03:31:53;;;;;;;10.13;3.03;;;8.20;99.90;;;;;;5077521;28;20187;-68
2022/02/20 03:34:19;;;;;;;4.30;2.63;;;8.20;99.90;;;;;;5099236;28;20182;-68
2022/02/20 03:36:45;;;;;;;5.00;2.50;;;8.20;99.90;;;;;;5072316;28;20190;-68
2022/02/20 03:39:11;;;;;;;5.57;2.97;;;8.20;99.90;;;;;;5084702;28;20190;-68
2022/02/20 03:41:38;;;;;;;4.90;2.33;;;8.20;99.90;;;;;;5078646;28;20225;-69
2022/02/20 03:44:04;;;;;;;2.90;2.47;;;8.20;99.90;;;;;;5068168;28;20199;-68
2022/02/20 03:46:31;;;;;;;3.93;2.20;;;8.20;99.90;;;;;;5070073;28;20195;-68
2022/02/20 03:48:57;;;;;;;5.80;2.47;;;8.20;99.90;;;;;;5055349;28;20264;-68
2022/02/20 03:51:23;;;;;;;8.20;2.43;;;8.20;99.90;;;;;;5082453;28;20269;-68
2022/02/20 03:53:51;;;;;;;3.50;2.17;;;8.10;99.90;;;;;;5067405;28;20667;-68
2022/02/20 03:56:17;;;;;;;4.87;2.23;;;8.20;99.90;;;;;;5075495;28;20289;-68
2022/02/20 03:58:43;;;;;;;4.40;2.77;;;8.20;99.90;;;;;;5068948;28;20203;-69
2022/02/20 04:01:10;;;;;;;4.33;2.60;;;8.20;99.90;;;;;;5067904;28;20217;-68
2022/02/20 04:03:36;;;;;;;3.50;2.50;;;8.20;99.90;;;;;;5076186;28;20201;-69
2022/02/20 04:06:02;;;;;;;3.93;2.30;;;8.10;99.90;;;;;;5085687;28;20194;-68
2022/02/20 04:08:29;;;;;;;2.53;2.23;;;8.10;99.90;;;;;;5073196;28;20219;-68
2022/02/20 04:10:56;;;;;;;3.70;2.10;;;8.10;99.90;;;;;;5072091;28;20284;-68
2022/02/20 04:13:22;;;;;;;4.30;2.50;;;8.10;99.90;;;;;;5068035;28;20201;-68
2022/02/20 04:15:48;;;;;;;5.23;2.43;;;8.10;99.90;;;;;;5098252;28;20185;-68
2022/02/20 04:18:14;;;;;;;4.50;2.40;;;8.10;99.90;;;;;;5085214;28;20566;-68
2022/02/20 04:20:41;;;;;;;3.17;2.00;;;8.10;99.90;;;;;;5084305;28;20293;-69
2022/02/20 04:23:07;;;;;;;3.53;2.17;;;8.10;99.90;;;;;;5077204;28;20194;-69
2022/02/20 04:25:33;;;;;;;3.47;1.90;;;8.10;99.90;;;;;;5069042;28;20281;-69
2022/02/20 04:28:00;;;;;;;7.83;2.40;;;8.10;99.90;;;;;;5069364;28;20225;-68
2022/02/20 04:30:26;;;;;;;3.40;1.83;;;8.10;99.90;;;;;;5066675;28;20257;-69
2022/02/20 04:32:52;;;;;;;4.20;2.20;;;8.10;99.90;;;;;;5074830;28;20234;-68
2022/02/20 04:35:18;;;;;;;4.67;2.10;;;8.10;99.90;;;;;;5073937;28;20289;-69
2022/02/20 04:37:45;;;;;;;5.60;2.20;;;8.10;99.90;;;;;;5085066;28;20639;-68
2022/02/20 04:40:11;;;;;;;4.37;2.13;;;8.10;99.90;;;;;;5079094;28;20663;-68
2022/02/20 04:42:38;;;;;;;3.40;2.37;;;8.10;99.90;;;;;;5072593;28;20685;-68
2022/02/20 04:45:05;;;;;;;3.97;2.37;;;8.20;99.90;;;;;;5079930;28;20186;-69
2022/02/20 04:47:31;;;;;;;3.53;2.17;;;8.20;99.90;;;;;;5091003;28;20194;-68
2022/02/20 04:49:57;;;;;;;3.20;2.20;;;8.20;99.90;;;;;;5070150;28;20283;-68
2022/02/20 04:52:24;;;;;;;4.70;2.37;;;8.20;99.90;;;;;;5065756;28;20202;-68
2022/02/20 04:54:50;;;;;;;2.73;2.03;;;8.20;99.90;;;;;;5074978;28;20669;-68
2022/02/20 04:57:16;;;;;;;3.70;2.20;;;8.10;99.90;;;;;;5088255;28;20657;-67
2022/02/20 04:59:42;;;;;;;5.23;2.60;;;8.10;99.90;;;;;;5081042;28;20413;-68
2022/02/20 05:02:09;;;;;;;7.10;2.33;;;8.20;99.90;;;;;;5050835;28;20352;-69
2022/02/20 05:04:35;;;;;;;7.10;2.60;;;8.20;99.90;;;;;;5079168;28;20187;-68
2022/02/20 05:07:01;;;;;;;3.97;2.40;;;8.20;99.90;;;;;;5072136;28;20201;-68
2022/02/20 05:09:27;;;;;;;3.13;2.20;;;8.20;99.90;;;;;;5084068;28;20206;-69
2022/02/20 05:11:54;;;;;;;5.37;2.30;;;8.30;99.90;;;;;;5060314;28;20568;-68
2022/02/20 05:14:20;;;;;;;3.77;2.37;;;8.30;99.90;;;;;;5079012;28;20190;-68
2022/02/20 05:16:46;;;;;;;4.83;2.43;;;8.30;99.90;;;;;;5070871;28;20636;-68
2022/02/20 05:19:12;;;;;;;3.70;2.57;;;8.30;99.90;;;;;;5066224;28;20202;-68
2022/02/20 05:21:38;;;;;;;3.30;2.37;;;8.20;99.90;;;;;;5102219;28;20654;-68
2022/02/20 05:24:05;;;;;;;6.83;2.37;;;8.20;99.90;;;;;;5073716;28;20237;-68
2022/02/20 05:26:32;;;;;;;3.17;2.27;;;8.20;99.90;;;;;;5067646;28;20198;-69
2022/02/20 05:28:58;;;;;;;6.80;2.70;;;8.20;99.90;;;;;;5071553;28;20218;-68
2022/02/20 05:31:24;;;;;;;4.53;2.60;;;8.30;99.90;;;;;;5062731;28;20221;-68
2022/02/20 05:33:50;;;;;;;3.83;2.43;;;8.20;99.90;;;;;;5077519;28;20629;-68
2022/02/20 05:36:17;;;;;;;4.57;2.40;;;8.30;99.90;;;;;;5062961;28;20286;-67
2022/02/20 05:38:43;;;;;;;4.97;2.77;;;8.30;99.90;;;;;;5070067;28;20210;-68
2022/02/20 05:41:09;;;;;;;4.37;2.80;;;8.30;99.90;;;;;;5080172;28;20259;-69
2022/02/20 05:43:35;;;;;;;5.50;2.47;;;8.40;99.90;;;;;;5082729;28;20549;-67
2022/02/20 05:46:02;;;;;;;5.77;2.93;;;8.50;99.90;;;;;;5066721;28;20197;-68
2022/02/20 05:48:28;;;;;;;6.10;2.77;;;8.60;99.90;;;;;;5067064;28;20487;-68
2022/02/20 05:50:54;;;;;;;7.27;3.07;;;8.60;99.90;;;;;;5055052;28;20178;-69
2022/02/20 05:53:21;;;;;;;7.57;3.30;;;8.70;99.90;;;;;;5085955;28;20182;-68
2022/02/20 05:55:47;;;;;;;4.97;3.00;;;8.80;99.90;;;;;;5077716;28;20186;-67
2022/02/20 05:58:14;;;;;;;4.87;3.00;;;8.80;99.90;;;;;;5080696;28;20202;-68
2022/02/20 06:00:40;;;;;;;6.20;3.20;;;8.90;99.90;;;;;;5072033;28;20853;-68
2022/02/20 06:03:06;;;;;;;5.77;3.67;;;9.00;99.90;;;;;;5064627;28;20263;-68
2022/02/20 06:05:33;;;;;;;4.77;3.90;;;9.00;99.90;;;;;;5082577;28;20190;-68
2022/02/20 06:07:59;;;;;;;4.87;3.73;;;9.10;99.90;;;;;;5074781;28;20237;-69
2022/02/20 06:10:27;;;;;;;6.83;5.00;;;9.20;99.90;;;;;;5070090;28;20186;-69
2022/02/20 06:12:53;;;;;;;10.03;3.93;;;9.20;99.90;;;;;;5085892;28;20179;-69
2022/02/20 06:15:19;;;;;;;6.77;4.10;;;9.30;99.90;;;;;;5072241;28;20193;-68
2022/02/20 06:17:46;;;;;;;10.30;4.00;;;9.40;99.90;;;;;;5075746;28;20281;-69
2022/02/20 06:20:12;;;;;;;6.40;3.57;;;9.40;99.90;;;;;;5065318;28;20653;-68
2022/02/20 06:22:39;;;;;;;8.57;3.27;;;9.40;99.90;;;;;;5086318;28;20614;-68
2022/02/20 06:25:06;;;;;;;5.13;3.60;;;9.50;99.90;;;;;;5080122;28;20229;-68
2022/02/20 06:27:32;;;;;;;10.13;3.50;;;9.60;99.90;;;;;;5076260;28;20616;-69
2022/02/20 06:29:58;;;;;;;5.47;3.23;;;9.70;99.90;;;;;;5069684;28;20226;-68
2022/02/20 06:32:24;;;;;;;8.90;3.47;;;9.80;99.90;;;;;;5071467;28;20558;-68
2022/02/20 06:34:50;;;;;;;4.63;3.10;;;9.80;99.90;;;;;;5082067;28;20235;-68
2022/02/20 06:37:17;;;;;;;6.63;3.20;;;9.90;99.90;;;;;;5074224;28;20190;-68
2022/02/20 06:39:44;;;;;;;7.37;3.90;;;10.00;99.90;;;;;;5064110;28;20190;-68
2022/02/20 06:42:13;;;;;;;6.33;3.40;;;10.10;99.90;;;;;;5075071;28;20288;-68
2022/02/20 06:44:40;;;;;;;6.50;3.27;;;10.20;99.90;;;;;;5063411;28;20198;-68
2022/02/20 06:47:07;;;;;;;6.80;3.43;;;10.30;99.90;;;;;;5070785;28;20187;-68
2022/02/20 06:49:33;;;;;;;5.13;3.50;;;10.40;99.90;;;;;;5074656;28;20777;-69
2022/02/20 06:52:00;;;;;;;5.80;3.17;;;10.50;99.90;;;;;;5079020;28;20187;-68
2022/02/20 06:54:27;;;;;;;10.43;3.10;;;10.50;99.90;;;;;;5084999;28;20187;-69
2022/02/20 06:56:57;;;;;;;4.47;2.67;;;10.70;99.90;;;;;;5087241;28;20194;-68
2022/02/20 06:59:25;;;;;;;10.93;3.10;;;10.90;99.90;;;;;;5086253;28;20190;-68
2022/02/20 07:01:52;;;;;;;6.60;2.70;;;10.90;99.90;;;;;;5069768;28;20212;-68
2022/02/20 07:04:18;;;;;;;4.57;2.73;;;11.10;99.90;;;;;;5068774;28;20309;-69
2022/02/20 07:06:45;;;;;;;5.53;2.73;;;11.20;99.90;;;;;;5076120;28;20288;-68
2022/02/20 07:09:12;;;;;;;9.97;3.47;;;11.20;99.90;;;;;;5086506;28;20210;-69
2022/02/20 07:11:40;;;;;;;9.20;2.90;;;11.30;99.90;;;;;;5073931;28;20190;-69
2022/02/20 07:14:07;;;;;;;8.60;2.80;;;11.40;99.90;;;;;;5080593;28;20254;-70
2022/02/20 07:16:34;;;;;;;4.37;2.73;;;11.50;99.90;;;;;;5084108;28;20221;-69
2022/02/20 07:19:00;;;;;;;5.30;2.30;;;11.60;99.90;;;;;;5087318;28;20247;-68
2022/02/20 07:21:28;;;;;;;4.43;2.50;;;11.60;99.90;;;;;;5070744;28;20199;-69
2022/02/20 07:23:58;;;;;;;10.47;3.20;;;11.60;99.90;;;;;;5074044;28;20186;-69
2022/02/20 07:26:28;;;;;;;5.93;2.50;;;11.70;99.90;;;;;;5088613;28;20733;-69
2022/02/20 07:28:54;;;;;;;7.33;2.80;;;11.70;99.90;;;;;;5076025;28;20674;-69
2022/02/20 07:31:21;;;;;;;6.00;2.50;;;11.80;99.90;;;;;;5072612;28;20182;-70
2022/02/20 07:33:47;;;;;;;8.63;2.63;;;11.80;99.90;;;;;;5069746;28;20573;-68
2022/02/20 07:36:14;;;;;;;7.10;2.63;;;11.90;99.90;;;;;;5072004;28;20248;-69
2022/02/20 07:38:40;;;;;;;6.03;2.90;;;12.00;99.90;;;;;;5071239;28;20278;-68
2022/02/20 07:41:06;;;;;;;5.97;2.40;;;12.00;99.90;;;;;;5070446;28;20578;-69
2022/02/20 07:43:33;;;;;;;9.03;2.97;;;12.10;99.90;;;;;;5082374;28;20206;-67
2022/02/20 07:45:59;;;;;;;11.83;2.77;;;12.10;99.90;;;;;;5094524;28;20198;-69
2022/02/20 07:48:25;;;;;;;4.80;2.90;;;12.20;99.90;;;;;;5070953;28;20698;-68
2022/02/20 07:50:51;;;;;;;5.20;2.63;;;12.20;99.90;;;;;;5083120;28;20179;-68
2022/02/20 07:53:18;;;;;;;5.60;3.00;;;12.30;99.90;;;;;;5072647;28;20224;-68
2022/02/20 07:55:44;;;;;;;8.40;3.23;;;12.30;99.90;;;;;;5072214;28;20179;-70
2022/02/20 07:58:12;;;;;;;7.63;2.80;;;12.40;99.90;;;;;;5070545;28;20187;-69
2022/02/20 08:00:38;;;;;;;3.93;2.40;;;12.40;99.90;;;;;;5068880;28;20186;-68
2022/02/20 08:03:05;;;;;;;5.50;2.40;;;12.40;99.90;;;;;;5067503;28;20467;-69
2022/02/20 08:05:31;;;;;;;6.60;2.80;;;12.50;99.90;;;;;;5091347;28;20712;-69
2022/02/20 08:07:58;;;;;;;9.27;2.87;;;12.60;99.90;;;;;;5077847;28;20196;-67
2022/02/20 08:10:24;;;;;;;5.77;2.50;;;12.70;99.90;;;;;;5075068;28;20207;-68
2022/02/20 08:12:50;;;;;;;10.87;2.90;;;12.70;99.90;;;;;;5073957;28;20189;-68
2022/02/20 08:15:17;;;;;;;4.57;2.60;;;12.80;99.90;;;;;;5054395;28;20329;-68
2022/02/20 08:17:46;;;;;;;8.53;2.63;;;12.90;99.90;;;;;;5087829;28;20194;-69
2022/02/20 08:20:15;;;;;;;7.43;2.80;;;13.00;99.90;;;;;;5060997;28;20255;-68
2022/02/20 08:22:42;;;;;;;7.87;2.83;;;13.10;99.90;;;;;;5074425;28;20269;-69
2022/02/20 08:25:10;;;;;;;14.60;3.10;;;13.10;99.90;;;;;;5078149;28;20191;-68
2022/02/20 08:27:37;;;;;;;6.90;3.40;;;13.10;99.90;;;;;;5076683;28;20217;-68
2022/02/20 08:30:11;;;;;;;6.03;3.30;;;13.20;99.90;;;;;;5084139;28;20209;-69
2022/02/20 08:32:38;;;;;;;5.37;2.80;;;13.40;99.90;;;;;;5082495;28;20217;-69
2022/02/20 08:35:11;;;;;;;8.53;4.03;;;13.50;99.90;;;;;;5080136;28;20654;-69
2022/02/20 08:37:43;;;;;;;6.47;3.27;;;13.50;99.90;;;;;;5071205;28;20193;-68
2022/02/20 08:40:15;;;;;;;6.57;3.00;;;13.50;99.90;;;;;;5084989;28;20194;-68
2022/02/20 08:42:44;;;;;;;6.80;3.00;;;13.50;99.90;;;;;;5082602;28;20281;-68
2022/02/20 08:45:15;;;;;;;10.90;3.50;;;13.60;99.90;;;;;;5067028;28;20221;-68
2022/02/20 08:47:44;;;;;;;6.27;3.00;;;13.70;99.90;;;;;;5076654;28;20199;-70
2022/02/20 08:50:13;;;;;;;11.67;3.10;;;13.80;99.90;;;;;;5076694;28;20218;-68
2022/02/20 08:52:40;;;;;;;6.07;2.40;;;13.80;99.90;;;;;;5075616;28;20182;-68
2022/02/20 08:55:08;;;;;;;12.40;2.77;;;13.70;99.90;;;;;;5082634;28;20186;-69
2022/02/20 08:57:35;;;;;;;6.90;3.23;;;13.70;99.90;;;;;;5095492;28;20190;-69
2022/02/20 09:00:02;;;;;;;9.53;4.03;;;13.70;99.90;;;;;;5074784;28;20635;-68
2022/02/20 09:02:29;;;;;;;12.33;4.10;;;13.80;99.90;;;;;;5078358;28;20217;-68
2022/02/20 09:04:55;;;;;;;9.13;3.57;;;14.00;99.90;;;;;;5074084;28;20221;-69
2022/02/20 09:07:21;;;;;;;6.47;3.37;;;14.00;99.90;;;;;;5069313;28;20206;-68
2022/02/20 09:09:48;;;;;;;7.83;4.10;;;14.00;99.90;;;;;;5079748;28;20214;-68
2022/02/20 09:12:14;;;;;;;8.70;3.83;;;14.00;99.90;;;;;;5075068;28;20186;-69
2022/02/20 09:14:41;;;;;;;7.97;3.57;;;14.10;99.90;;;;;;5071537;28;20190;-68
2022/02/20 09:17:08;;;;;;;7.47;3.70;;;14.20;99.90;;;;;;5074127;28;20210;-68
2022/02/20 09:19:35;;;;;;;14.43;3.70;;;14.20;99.90;;;;;;5077805;28;20593;-68
2022/02/20 09:22:01;;;;;;;11.43;3.93;;;14.40;99.90;;;;;;5074921;28;20221;-70
2022/02/20 09:24:27;;;;;;;7.70;4.10;;;14.40;99.90;;;;;;5073717;28;20255;-69
2022/02/20 09:26:54;;;;;;;9.60;4.00;;;14.30;99.90;;;;;;5077702;28;20233;-69
2022/02/20 09:29:20;;;;;;;8.30;3.83;;;14.30;99.90;;;;;;5080639;28;20939;-68
2022/02/20 09:31:47;;;;;;;9.97;4.23;;;14.40;99.90;;;;;;5070262;28;20228;-68
2022/02/20 09:34:13;;;;;;;9.77;3.90;;;14.40;99.90;;;;;;5092839;28;20643;-68
2022/02/20 09:36:40;;;;;;;10.67;4.57;;;14.40;99.90;;;;;;5068907;28;20548;-68
2022/02/20 09:39:07;;;;;;;10.57;4.30;;;14.40;99.90;;;;;;5082957;28;20700;-68
2022/02/20 09:41:35;;;;;;;16.30;4.30;;;14.50;99.90;;;;;;5073299;28;20286;-68
2022/02/20 09:44:03;;;;;;;9.60;4.00;;;14.50;99.90;;;;;;5059988;28;20206;-69
2022/02/20 09:46:30;;;;;;;7.80;3.70;;;14.50;99.90;;;;;;5064704;28;20183;-67
2022/02/20 09:48:59;;;;;;;9.07;4.13;;;14.50;99.90;;;;;;5061883;28;20211;-69
2022/02/20 09:51:28;;;;;;;11.47;4.73;;;14.70;99.90;;;;;;5074846;28;20214;-68
2022/02/20 09:53:56;;;;;;;11.33;3.77;;;14.90;99.90;;;;;;5081361;28;20231;-70
2022/02/20 09:56:23;;;;;;;12.70;4.10;;;15.00;99.90;;;;;;5084327;28;20206;-69
2022/02/20 09:58:50;;;;;;;9.03;3.90;;;15.00;99.90;;;;;;5073345;28;20193;-68
2022/02/20 10:01:17;;;;;;;8.00;4.40;;;14.90;99.90;;;;;;5077566;28;20287;-68
2022/02/20 10:03:47;;;;;;;10.70;4.40;;;14.90;99.90;;;;;;5073681;28;20190;-68
2022/02/20 10:06:20;;;;;;;9.53;4.40;;;15.00;99.90;;;;;;5081290;28;20281;-68
2022/02/20 10:08:55;;;;;;;9.43;3.90;;;15.00;99.90;;;;;;5078637;28;20323;-68
2022/02/20 10:11:30;;;;;;;7.93;3.97;;;15.10;99.90;;;;;;5077081;28;20178;-68
2022/02/20 10:14:03;;;;;;;8.57;3.63;;;15.30;99.90;;;;;;5081803;28;20186;-68
2022/02/20 10:16:32;;;;;;;6.50;3.30;;;15.60;99.90;;;;;;5068266;28;20643;-68
2022/02/20 10:19:01;;;;;;;9.33;3.60;;;15.90;99.90;;;;;;5070727;28;20280;-68
2022/02/20 10:21:32;;;;;;;7.10;3.17;;;16.20;99.90;;;;;;5073809;28;20269;-68
2022/02/20 10:24:14;;;;;;;7.57;3.50;;;16.40;99.90;;;;;;5076052;28;20236;-68
2022/02/20 10:26:48;;;;;;;8.70;3.40;;;16.50;99.90;;;;;;5080352;28;20225;-68
2022/02/20 10:29:20;;;;;;;6.00;3.23;;;16.30;99.90;;;;;;5069522;28;20291;-68
2022/02/20 10:31:55;;;;;;;5.53;3.37;;;16.30;99.90;;;;;;5069801;28;20512;-69
2022/02/20 10:34:28;;;;;;;6.73;3.33;;;16.40;99.90;;;;;;5075832;28;20993;-68
2022/02/20 10:37:03;;;;;;;5.63;2.80;;;16.60;99.90;;;;;;5076026;28;20263;-70
2022/02/20 10:39:37;;;;;;;5.30;3.03;;;17.10;99.90;;;;;;5072243;28;20869;-68
2022/02/20 10:42:13;;;;;;;9.93;3.33;;;17.50;99.90;;;;;;5069768;28;20630;-69
2022/02/20 10:45:01;;;;;;;5.73;3.50;;;18.00;99.90;;;;;;5061657;28;20193;-68
2022/02/20 10:47:32;;;;;;;7.33;3.80;;;18.40;99.90;;;;;;5072095;28;20193;-68
2022/02/20 10:50:24;;;;;;;6.63;3.50;;;18.60;99.90;;;;;;5078881;28;20217;-68
2022/02/20 10:53:23;;;;;;;9.70;3.17;;;18.90;99.90;;;;;;5061912;28;20198;-69
2022/02/20 10:55:51;;;;;;;7.23;3.03;;;18.90;99.90;;;;;;5090711;28;20244;-69
2022/02/20 10:58:28;;;;;;;9.33;3.57;;;18.70;99.90;;;;;;5074195;28;20264;-68
2022/02/20 11:01:05;;;;;;;6.23;3.37;;;18.70;99.90;;;;;;5070313;28;20635;-68
2022/02/20 11:03:33;;;;;;;7.60;4.47;;;18.50;99.90;;;;;;5053588;28;20181;-70
2022/02/20 11:06:02;;;;;;;8.23;3.80;;;18.50;99.90;;;;;;5072923;28;20866;-69
2022/02/20 11:08:30;;;;;;;5.93;3.10;;;18.30;99.90;;;;;;5076449;28;20268;-68
2022/02/20 11:10:58;;;;;;;4.13;2.70;;;18.10;99.90;;;;;;5092128;28;20189;-68
2022/02/20 11:13:25;;;;;;;4.97;3.10;;;17.90;99.90;;;;;;5081387;28;20190;-68
2022/02/20 11:15:54;;;;;;;6.43;3.47;;;17.60;99.90;;;;;;5077668;28;20187;-68
2022/02/20 11:18:24;;;;;;;6.37;3.13;;;17.30;99.90;;;;;;5068788;28;20607;-68
2022/02/20 11:20:53;;;;;;;5.33;3.57;;;17.10;99.90;;;;;;5088339;28;20186;-68
2022/02/20 11:23:27;;;;;;;12.07;3.23;;;17.00;99.90;;;;;;5052327;28;20296;-69
2022/02/20 11:25:59;;;;;;;5.63;3.13;;;16.90;99.90;;;;;;5082331;28;20666;-69
2022/02/20 11:28:25;;;;;;;4.53;2.50;;;16.80;99.90;;;;;;5067708;28;20623;-67
2022/02/20 11:30:52;;;;;;;9.47;3.23;;;16.80;99.90;;;;;;5073651;28;20201;-69
2022/02/20 11:33:21;;;;;;;4.73;2.60;;;16.80;99.90;;;;;;5069653;28;20217;-69
2022/02/20 11:35:50;;;;;;;5.60;2.50;;;16.80;99.90;;;;;;5074054;28;20218;-68
2022/02/20 11:38:21;;;;;;;7.80;3.00;;;16.90;99.90;;;;;;5078007;28;20209;-68
2022/02/20 11:41:08;;;;;;;9.33;3.10;;;16.90;99.90;;;;;;5080568;28;20194;-68
2022/02/20 11:43:45;;;;;;;6.00;3.17;;;16.90;99.90;;;;;;5068209;28;20248;-68
2022/02/20 11:46:24;;;;;;;7.60;3.37;;;16.90;99.90;;;;;;5079082;28;20178;-68
2022/02/20 11:49:02;;;;;;;7.87;3.30;;;16.80;99.90;;;;;;5072733;28;20300;-67
2022/02/20 11:51:31;;;;;;;7.90;3.60;;;16.80;99.90;;;;;;5078417;28;20178;-68
2022/02/20 11:54:17;;;;;;;5.00;3.10;;;16.80;99.90;;;;;;5070184;28;20187;-68
2022/02/20 11:57:04;;;;;;;3.97;2.40;;;16.70;99.90;;;;;;5079320;28;20187;-68
2022/02/20 11:59:31;;;;;;;4.90;2.77;;;16.70;99.90;;;;;;5083239;28;20278;-68
2022/02/20 12:02:13;;;;;;;6.97;3.43;;;16.60;99.90;;;;;;5077415;28;20501;-69
2022/02/20 12:04:52;;;;;;;7.30;2.97;;;16.50;99.90;;;;;;5080909;28;20255;-68
2022/02/20 12:07:42;;;;;;;4.70;3.37;;;16.40;99.90;;;;;;5084197;28;20296;-67
2022/02/20 12:12:53;;;;;;;7.40;3.23;;;16.40;99.90;;;;;;5070641;28;20210;-67
2022/02/20 12:15:39;;;;;;;5.27;3.23;;;16.50;99.90;;;;;;5087779;28;20248;-68
2022/02/20 12:18:11;;;;;;;4.50;3.03;;;16.50;99.90;;;;;;5073169;28;20182;-68
2022/02/20 12:20:53;;;;;;;8.77;3.67;;;16.60;99.90;;;;;;5077915;28;20210;-68
2022/02/20 12:23:49;;;;;;;8.47;3.83;;;16.60;99.90;;;;;;5088274;28;20239;-68
2022/02/20 12:26:57;;;;;;;8.63;3.63;;;16.60;99.90;;;;;;5073069;28;20179;-67
2022/02/20 12:29:41;;;;;;;6.10;3.37;;;16.50;99.90;;;;;;5066479;28;20289;-67
2022/02/20 12:32:14;;;;;;;6.70;3.27;;;16.50;99.90;;;;;;5078555;28;20567;-68
2022/02/20 12:35:19;;;;;;;9.60;3.90;;;16.40;99.90;;;;;;5074735;28;20191;-68
2022/02/20 12:37:56;;;;;;;10.70;3.83;;;16.30;99.90;;;;;;5059577;28;20246;-69
2022/02/20 12:40:34;;;;;;;9.87;4.50;;;16.30;99.90;;;;;;5090465;28;20198;-68
2022/02/20 12:43:10;;;;;;;11.60;4.87;;;16.20;99.90;;;;;;5086114;28;20416;-69
2022/02/20 12:45:41;;;;;;;7.40;4.50;;;16.20;99.90;;;;;;5076065;28;20193;-68
2022/02/20 12:48:11;;;;;;;7.07;4.90;;;16.10;99.90;;;;;;5083712;28;20194;-68
2022/02/20 12:50:43;;;;;;;9.23;4.47;;;16.10;99.90;;;;;;5074463;28;20750;-68
2022/02/20 12:53:10;;;;;;;10.80;5.00;;;16.10;99.90;;;;;;5069528;28;20212;-68
2022/02/20 12:55:40;;;;;;;13.67;4.87;;;16.00;99.90;;;;;;5070275;28;20214;-68
2022/02/20 12:58:12;;;;;;;7.57;4.27;;;16.10;99.90;;;;;;5088522;28;20205;-68
2022/02/20 13:00:48;;;;;;;9.13;4.60;;;16.10;99.90;;;;;;5076743;28;20277;-68